createdAt,value
2023-02-11T01:57:35.004Z,85.39
2023-02-11T02:00:25.776Z,84.26
2023-02-11T02:03:03.456Z,83.71
2023-02-11T02:05:50.893Z,83.40
2023-02-11T02:08:42.794Z,83.22
2023-02-11T02:11:16.538Z,82.96
2023-02-11T02:13:47.972Z,82.90
2023-02-11T02:16:19.137Z,82.58
2023-02-11T02:19:07.294Z,82.24
2023-02-11T02:22:01.308Z,82.07
2023-02-11T02:24:31.905Z,81.86
2023-02-11T02:27:24.123Z,81.67
2023-02-11T02:30:37.560Z,81.56
2023-02-11T02:36:19.677Z,81.67
2023-02-11T02:38:59.551Z,81.76
2023-02-11T02:41:37.062Z,81.91
2023-02-11T02:44:08.131Z,81.84
2023-02-11T02:46:41.255Z,81.52
2023-02-11T02:49:16.554Z,81.10
2023-02-11T02:52:02.940Z,80.78
2023-02-11T02:54:43.066Z,80.47
2023-02-11T02:57:21.927Z,80.28
2023-02-11T03:00:00.790Z,80.06
2023-02-11T03:02:52.308Z,79.93
2023-02-11T03:05:24.774Z,79.75
2023-02-11T03:08:32.388Z,79.72
2023-02-11T03:11:03.401Z,79.59
2023-02-11T03:13:55.732Z,79.25
2023-02-11T03:16:30.640Z,78.71
2023-02-11T03:19:04.406Z,77.95
2023-02-11T03:21:37.823Z,77.62
2023-02-11T03:24:18.929Z,77.28
2023-02-11T03:27:00.213Z,76.91
2023-02-11T03:29:42.462Z,76.60
2023-02-11T03:32:18.102Z,76.30
2023-02-11T03:34:53.005Z,76.13
2023-02-11T03:37:30.621Z,75.75
2023-02-11T03:40:25.914Z,75.64
2023-02-11T03:43:02.551Z,75.46
2023-02-11T03:45:32.774Z,74.95
2023-02-11T03:48:07.727Z,74.78
2023-02-11T03:50:38.107Z,74.53
2023-02-11T03:53:09.182Z,74.33
2023-02-11T03:55:40.622Z,73.94
2023-02-11T03:58:12.966Z,73.59
2023-02-11T04:00:45.770Z,73.52
2023-02-11T04:03:14.412Z,73.41
2023-02-11T04:05:43.902Z,73.43
2023-02-11T04:08:12.329Z,73.48
2023-02-11T04:10:42.304Z,73.37
2023-02-11T04:13:11.530Z,73.32
2023-02-11T04:15:40.406Z,73.23
2023-02-11T04:18:08.667Z,73.18
2023-02-11T04:20:36.961Z,73.19
2023-02-11T04:23:05.257Z,73.29
2023-02-11T04:25:33.823Z,73.38
2023-02-11T04:28:02.446Z,73.43
2023-02-11T04:30:30.926Z,73.37
2023-02-11T04:32:59.756Z,73.58
2023-02-11T04:35:28.446Z,73.81
2023-02-11T04:37:57.059Z,73.80
2023-02-11T04:40:25.407Z,73.88
2023-02-11T04:42:57.720Z,73.98
2023-02-11T04:45:26.836Z,74.14
2023-02-11T04:47:55.271Z,74.40
2023-02-11T04:50:23.842Z,74.54
2023-02-11T04:52:52.390Z,74.71
2023-02-11T04:55:20.732Z,74.64
2023-02-11T04:57:49.078Z,74.75
2023-02-11T05:00:17.691Z,75.05
2023-02-11T05:02:46.374Z,75.14
2023-02-11T05:05:14.692Z,75.07
2023-02-11T05:07:43.396Z,74.79
2023-02-11T05:10:12.209Z,74.55
2023-02-11T05:12:41.381Z,74.38
2023-02-11T05:15:10.085Z,74.31
2023-02-11T05:17:39.703Z,74.15
2023-02-11T05:20:09.062Z,74.09
2023-02-11T05:22:38.657Z,73.81
2023-02-11T05:25:07.463Z,73.60
2023-02-11T05:27:36.239Z,73.28
2023-02-11T05:30:05.324Z,73.27
2023-02-11T05:32:34.336Z,73.01
2023-02-11T05:35:02.847Z,72.74
2023-02-11T05:37:31.777Z,72.39
2023-02-11T05:40:00.425Z,72.13
2023-02-11T05:42:30.020Z,71.79
2023-02-11T05:44:58.550Z,71.59
2023-02-11T05:47:27.144Z,71.39
2023-02-11T05:49:55.398Z,71.09
2023-02-11T05:52:24.145Z,70.80
2023-02-11T05:54:52.729Z,70.56
2023-02-11T05:57:22.285Z,70.36
2023-02-11T05:59:51.228Z,70.38
2023-02-11T06:02:21.780Z,70.39
2023-02-11T06:04:50.447Z,70.23
2023-02-11T06:07:23.739Z,70.06
2023-02-11T06:09:52.826Z,69.79
2023-02-11T06:12:21.661Z,69.63
2023-02-11T06:14:50.291Z,69.77
2023-02-11T06:17:20.435Z,69.68
2023-02-11T06:19:52.132Z,69.40
2023-02-11T06:22:20.704Z,69.12
2023-02-11T06:25:00.881Z,68.88
2023-02-11T06:27:33.074Z,68.90
2023-02-11T06:30:01.834Z,68.82
2023-02-11T06:32:43.280Z,68.43
2023-02-11T06:35:14.686Z,67.08
2023-02-11T06:37:44.243Z,66.57
2023-02-11T06:40:13.683Z,65.75
2023-02-11T06:42:43.365Z,64.44
2023-02-11T06:45:17.534Z,63.45
2023-02-11T06:47:47.384Z,63.28
2023-02-11T06:50:17.372Z,63.00
2023-02-11T06:52:48.689Z,62.82
2023-02-11T06:55:30.706Z,63.17
2023-02-11T06:58:02.347Z,63.44
2023-02-11T07:00:35.089Z,63.50
2023-02-11T07:03:10.058Z,63.80
2023-02-11T07:05:42.816Z,64.22
2023-02-11T07:08:13.621Z,64.98
2023-02-11T07:10:45.721Z,65.13
2023-02-11T07:13:15.169Z,65.05
2023-02-11T07:15:43.997Z,64.90
2023-02-11T07:18:16.444Z,64.80
2023-02-11T07:20:45.518Z,64.98
2023-02-11T07:23:14.041Z,65.29
2023-02-11T07:25:42.516Z,65.62
2023-02-11T07:28:11.476Z,65.72
2023-02-11T07:30:41.613Z,65.62
2023-02-11T07:33:10.243Z,65.67
2023-02-11T07:35:42.314Z,65.53
2023-02-11T07:38:11.203Z,65.49
2023-02-11T07:40:40.563Z,65.41
2023-02-11T07:43:09.646Z,65.45
2023-02-11T07:45:39.697Z,65.61
2023-02-11T07:48:08.691Z,65.84
2023-02-11T07:50:39.053Z,65.98
2023-02-11T07:53:07.750Z,65.87
2023-02-11T07:55:38.908Z,65.98
2023-02-11T07:58:07.369Z,65.95
2023-02-11T08:00:39.392Z,66.22
2023-02-11T08:03:08.736Z,66.29
2023-02-11T08:05:39.516Z,66.30
2023-02-11T08:08:08.032Z,66.15
2023-02-11T08:10:37.425Z,66.21
2023-02-11T08:13:06.385Z,66.18
2023-02-11T08:15:39.469Z,66.32
2023-02-11T08:18:09.188Z,66.25
2023-02-11T08:20:37.737Z,65.95
2023-02-11T08:23:08.801Z,65.94
2023-02-11T08:25:37.136Z,65.86
2023-02-11T08:28:05.454Z,65.40
2023-02-11T08:30:34.013Z,65.05
2023-02-11T08:33:03.007Z,64.65
2023-02-11T08:35:33.300Z,63.96
2023-02-11T08:38:03.028Z,63.55
2023-02-11T08:40:31.503Z,63.09
2023-02-11T08:43:06.266Z,63.19
2023-02-11T08:45:37.737Z,63.07
2023-02-11T08:48:06.583Z,62.79
2023-02-11T08:50:38.941Z,62.47
2023-02-11T08:53:07.535Z,61.90
2023-02-11T08:55:37.244Z,61.53
2023-02-11T08:58:05.829Z,61.42
2023-02-11T09:00:34.486Z,61.15
2023-02-11T09:03:04.301Z,60.91
2023-02-11T09:05:32.796Z,60.46
2023-02-11T09:08:03.172Z,60.15
2023-02-11T09:10:35.524Z,59.93
2023-02-11T09:13:04.859Z,60.13
2023-02-11T09:15:34.182Z,60.44
2023-02-11T09:18:06.188Z,60.49
2023-02-11T09:20:36.028Z,60.30
2023-02-11T09:23:07.035Z,60.58
2023-02-11T09:25:40.825Z,60.97
2023-02-11T09:28:09.477Z,60.89
2023-02-11T09:30:42.224Z,60.95
2023-02-11T09:33:15.431Z,60.71
2023-02-11T09:35:54.290Z,60.69
2023-02-11T09:38:22.938Z,60.42
2023-02-11T09:40:52.780Z,60.26
2023-02-11T09:43:33.565Z,60.03
2023-02-11T09:46:02.576Z,59.77
2023-02-11T09:48:33.836Z,59.78
2023-02-11T09:51:02.215Z,59.98
2023-02-11T09:53:42.382Z,59.99
2023-02-11T09:56:14.940Z,59.98
2023-02-11T09:58:53.245Z,59.53
2023-02-11T10:01:32.871Z,59.37
2023-02-11T10:04:10.725Z,59.48
2023-02-11T10:07:28.759Z,59.73
2023-02-11T10:10:26.771Z,60.00
2023-02-11T10:13:14.737Z,60.30
2023-02-11T10:15:52.543Z,60.58
2023-02-11T10:18:49.182Z,60.53
2023-02-11T10:21:38.014Z,60.42
2023-02-11T10:24:14.081Z,60.38
2023-02-11T10:26:43.236Z,60.44
2023-02-11T10:29:27.088Z,60.27
2023-02-11T10:31:58.212Z,60.48
2023-02-11T10:34:34.125Z,60.65
2023-02-11T10:37:03.202Z,60.76
2023-02-11T10:39:32.162Z,60.77
2023-02-11T10:42:04.132Z,60.87
2023-02-11T10:44:44.544Z,60.84
2023-02-11T10:47:33.904Z,60.82
2023-02-11T10:50:17.702Z,60.59
2023-02-11T10:52:46.068Z,60.80
2023-02-11T10:55:21.631Z,60.65
2023-02-11T10:58:00.883Z,60.54
2023-02-11T11:00:39.057Z,60.78
2023-02-11T11:03:22.500Z,60.76
2023-02-11T11:06:00.812Z,60.79
2023-02-11T11:08:48.946Z,61.02
2023-02-11T11:11:23.056Z,60.98
2023-02-11T11:14:01.705Z,61.59
2023-02-11T11:16:35.329Z,61.63
2023-02-11T11:19:06.788Z,61.84
2023-02-11T11:21:42.692Z,61.58
2023-02-11T11:24:21.800Z,61.67
2023-02-11T11:26:54.024Z,61.76
2023-02-11T11:29:43.995Z,61.99
2023-02-11T11:32:18.908Z,62.02
2023-02-11T11:34:56.313Z,61.71
2023-02-11T11:37:27.524Z,61.51
2023-02-11T11:40:24.894Z,61.48
2023-02-11T11:43:27.058Z,61.60
2023-02-11T11:45:57.510Z,61.48
2023-02-11T11:48:35.520Z,61.56
2023-02-11T11:51:11.869Z,60.89
2023-02-11T11:53:41.992Z,60.47
2023-02-11T11:56:47.668Z,60.18
2023-02-11T11:59:19.717Z,60.18
2023-02-11T12:02:15.864Z,60.72
2023-02-11T12:04:50.957Z,60.31
2023-02-11T12:07:41.801Z,60.26
2023-02-11T12:10:32.260Z,59.99
2023-02-11T12:13:05.736Z,60.09
2023-02-11T12:16:04.763Z,59.98
2023-02-11T12:18:45.558Z,60.33
2023-02-11T12:21:29.915Z,60.18
2023-02-11T12:24:17.329Z,60.71
2023-02-11T12:26:55.368Z,60.56
2023-02-11T12:29:55.960Z,60.10
2023-02-11T12:32:45.168Z,59.90
2023-02-11T12:35:35.782Z,59.91
2023-02-11T12:38:12.061Z,59.61
2023-02-11T12:40:45.431Z,59.19
2023-02-11T12:43:35.981Z,59.23
2023-02-11T12:46:29.052Z,59.02
2023-02-11T12:49:10.106Z,59.12
2023-02-11T12:52:16.694Z,58.77
2023-02-11T12:55:01.208Z,58.42
2023-02-11T12:57:32.178Z,58.20
2023-02-11T13:00:05.912Z,58.16
2023-02-11T13:02:39.122Z,58.40
2023-02-11T13:05:20.103Z,58.31
2023-02-11T13:07:48.489Z,57.87
2023-02-11T13:10:42.030Z,57.43
2023-02-11T13:13:23.070Z,57.58
2023-02-11T13:16:03.400Z,57.34
2023-02-11T13:19:23.518Z,57.00
2023-02-11T13:22:19.840Z,56.29
2023-02-11T13:24:51.991Z,56.34
2023-02-11T13:27:24.171Z,55.81
2023-02-11T13:30:14.845Z,56.01
2023-02-11T13:33:34.334Z,56.64
2023-02-11T13:36:04.638Z,57.10
2023-02-11T13:38:34.150Z,57.49
2023-02-11T13:41:25.452Z,58.22
2023-02-11T13:44:27.119Z,58.86
2023-02-11T13:47:00.289Z,59.26
2023-02-11T13:49:43.252Z,59.46
2023-02-11T13:52:35.042Z,59.96
2023-02-11T13:55:23.180Z,60.31
2023-02-11T13:58:08.653Z,60.78
2023-02-11T14:00:37.241Z,61.08
2023-02-11T14:03:31.040Z,61.34
2023-02-11T14:06:27.259Z,61.81
2023-02-11T14:09:09.361Z,62.02
2023-02-11T14:11:50.110Z,61.88
2023-02-11T14:14:31.384Z,61.96
2023-02-11T14:17:10.206Z,62.12
2023-02-11T14:19:43.789Z,62.30
2023-02-11T14:22:18.265Z,62.54
2023-02-11T14:24:51.366Z,62.89
2023-02-11T14:27:23.332Z,63.31
2023-02-11T14:30:15.868Z,63.64
2023-02-11T14:33:12.648Z,63.87
2023-02-11T14:36:01.856Z,64.11
2023-02-11T14:38:55.427Z,64.28
2023-02-11T14:41:51.153Z,64.48
2023-02-11T14:44:20.101Z,64.75
2023-02-11T14:46:50.638Z,64.93
2023-02-11T14:49:39.776Z,65.37
2023-02-11T14:52:23.658Z,65.60
2023-02-11T14:54:52.016Z,66.21
2023-02-11T14:57:20.510Z,66.77
2023-02-11T15:00:06.673Z,67.04
2023-02-11T15:02:38.353Z,67.50
2023-02-11T15:05:26.335Z,68.00
2023-02-11T15:07:59.404Z,68.36
2023-02-11T15:10:37.021Z,69.02
2023-02-11T15:13:07.567Z,69.51
2023-02-11T15:15:38.117Z,70.13
2023-02-11T15:18:09.813Z,70.78
2023-02-11T15:20:38.294Z,71.70
2023-02-11T15:23:09.525Z,72.17
2023-02-11T15:25:46.132Z,72.70
2023-02-11T15:28:24.358Z,73.59
2023-02-11T15:31:14.055Z,73.96
2023-02-11T15:33:42.582Z,74.13
2023-02-11T15:36:15.554Z,74.21
2023-02-11T15:38:44.042Z,74.13
2023-02-11T15:41:36.369Z,74.01
2023-02-11T15:44:04.825Z,74.26
2023-02-11T15:46:38.959Z,74.28
2023-02-11T15:49:16.352Z,74.39
2023-02-11T15:51:45.870Z,74.58
2023-02-11T15:54:20.922Z,74.75
2023-02-11T15:56:55.640Z,75.05
2023-02-11T16:00:04.613Z,75.17
2023-02-11T16:02:45.339Z,75.24
2023-02-11T16:05:34.246Z,75.46
2023-02-11T16:08:24.632Z,75.63
2023-02-11T16:11:09.000Z,75.82
2023-02-11T16:13:45.740Z,76.16
2023-02-11T16:16:25.110Z,76.49
2023-02-11T16:19:05.827Z,76.78
2023-02-11T16:21:39.455Z,77.37
2023-02-11T16:24:10.704Z,77.88
2023-02-11T16:26:43.305Z,78.27
2023-02-11T16:29:13.988Z,78.69
2023-02-11T16:31:44.119Z,79.07
2023-02-11T16:34:20.948Z,79.66
2023-02-11T16:36:49.925Z,80.38
2023-02-11T16:39:21.843Z,80.53
2023-02-11T16:41:54.160Z,81.06
2023-02-11T16:44:22.738Z,81.47
2023-02-11T16:46:53.651Z,81.61
2023-02-11T16:49:24.944Z,81.88
2023-02-11T16:52:01.292Z,82.16
2023-02-11T16:54:33.993Z,82.51
2023-02-11T16:57:03.237Z,82.77
2023-02-11T16:59:32.301Z,82.94
2023-02-11T17:02:00.984Z,83.17
2023-02-11T17:04:31.130Z,82.93
2023-02-11T17:06:59.646Z,82.56
2023-02-11T17:09:30.906Z,82.32
2023-02-11T17:12:02.166Z,81.61
2023-02-11T17:14:30.878Z,81.45
2023-02-11T17:16:59.302Z,81.07
2023-02-11T17:19:29.155Z,79.98
2023-02-11T17:21:57.680Z,79.26
2023-02-11T17:24:26.418Z,78.98
2023-02-11T17:26:55.278Z,78.60
2023-02-11T17:29:25.411Z,78.09
2023-02-11T17:31:54.389Z,77.85
2023-02-11T17:34:23.304Z,77.48
2023-02-11T17:36:52.441Z,77.14
2023-02-11T17:39:21.364Z,76.82
2023-02-11T17:41:49.781Z,76.18
2023-02-11T17:44:19.390Z,75.73
2023-02-11T17:46:47.719Z,75.50
2023-02-11T17:49:17.418Z,75.25
2023-02-11T17:51:50.631Z,75.12
2023-02-11T17:54:19.517Z,74.79
2023-02-11T17:56:51.078Z,74.58
2023-02-11T17:59:21.566Z,74.33
2023-02-11T18:01:50.127Z,74.18
2023-02-11T18:04:20.982Z,73.93
2023-02-11T18:06:50.514Z,73.62
2023-02-11T18:09:20.712Z,73.14
2023-02-11T18:11:52.733Z,72.96
2023-02-11T18:14:22.130Z,72.90
2023-02-11T18:16:52.497Z,72.85
2023-02-11T18:19:21.530Z,72.89
2023-02-11T18:21:51.250Z,72.88
2023-02-11T18:30:38.303Z,72.96
2023-02-11T18:33:08.492Z,72.80
2023-02-11T18:35:39.961Z,72.67
2023-02-11T18:38:07.948Z,72.50
2023-02-11T18:40:40.106Z,72.66
2023-02-11T18:43:08.222Z,72.58
2023-02-11T18:45:35.612Z,72.69
2023-02-11T18:48:07.737Z,73.05
2023-02-11T18:50:37.195Z,73.17
2023-02-11T18:53:05.924Z,73.22
2023-02-11T18:55:32.881Z,73.12
2023-02-11T18:58:01.165Z,73.39
2023-02-11T19:00:30.765Z,73.27
2023-02-11T19:02:58.144Z,73.33
2023-02-11T19:05:32.753Z,73.43
2023-02-11T19:08:00.512Z,73.46
2023-02-11T19:10:28.046Z,73.61
2023-02-11T19:12:55.894Z,73.54
2023-02-11T19:15:25.340Z,73.52
2023-02-11T19:17:52.876Z,73.57
2023-02-11T19:20:19.926Z,73.67
2023-02-11T19:22:48.540Z,73.73
2023-02-11T19:25:17.253Z,73.77
2023-02-11T19:28:05.460Z,73.89
2023-02-11T19:30:33.000Z,73.84
2023-02-11T19:33:01.611Z,73.94
2023-02-11T19:35:30.335Z,74.01
2023-02-11T19:37:57.751Z,73.95
2023-02-11T19:40:24.654Z,73.65
2023-02-11T19:42:52.441Z,73.45
2023-02-11T19:45:19.955Z,73.27
2023-02-11T19:47:46.930Z,72.86
2023-02-11T19:50:14.014Z,72.92
2023-02-11T19:52:42.861Z,72.49
2023-02-11T19:55:10.135Z,72.02
2023-02-11T19:57:38.191Z,71.71
2023-02-11T20:00:26.344Z,71.33
2023-02-11T20:02:57.325Z,71.34
2023-02-11T20:05:24.344Z,71.06
2023-02-11T20:07:52.068Z,70.45
2023-02-11T20:10:19.256Z,70.66
2023-02-11T20:12:46.312Z,70.59
2023-02-11T20:15:13.543Z,70.56
2023-02-11T20:17:41.780Z,70.54
2023-02-11T20:20:12.431Z,70.63
2023-02-11T20:22:40.037Z,70.59
2023-02-11T20:25:07.776Z,70.86
2023-02-11T20:27:35.542Z,70.95
2023-02-11T20:30:03.766Z,71.07
2023-02-11T20:32:37.515Z,71.29
2023-02-11T20:35:05.483Z,71.54
2023-02-11T20:37:33.192Z,71.63
2023-02-11T20:40:00.400Z,71.70
2023-02-11T20:42:27.817Z,71.90
2023-02-11T20:44:55.016Z,72.13
2023-02-11T20:47:24.366Z,72.28
2023-02-11T20:49:53.930Z,72.57
2023-02-11T20:52:21.532Z,72.61
2023-02-11T20:54:48.614Z,72.63
2023-02-11T20:57:15.658Z,72.45
2023-02-11T20:59:43.015Z,72.41
2023-02-11T21:02:11.836Z,72.36
2023-02-11T21:04:40.179Z,72.43
2023-02-11T21:07:07.439Z,72.59
2023-02-11T21:09:35.094Z,72.52
2023-02-11T21:12:05.018Z,72.37
2023-02-11T21:14:33.794Z,72.16
2023-02-11T21:17:01.045Z,72.29
2023-02-11T21:19:28.399Z,72.23
2023-02-11T21:21:56.926Z,72.30
2023-02-11T21:24:24.453Z,72.55
2023-02-11T21:26:53.346Z,72.79
2023-02-11T21:29:20.784Z,73.13
2023-02-11T21:31:47.982Z,73.45
2023-02-11T21:34:15.829Z,73.74
2023-02-11T21:36:44.886Z,74.27
2023-02-11T21:39:13.241Z,74.50
2023-02-11T21:41:42.060Z,74.71
2023-02-11T21:44:11.823Z,74.92
2023-02-11T21:46:39.910Z,75.05
2023-02-11T21:49:07.316Z,75.11
2023-02-11T21:51:37.767Z,75.26
2023-02-11T21:54:05.292Z,75.30
2023-02-11T21:56:34.923Z,75.38
2023-02-11T21:59:03.026Z,75.43
2023-02-11T22:01:32.165Z,75.10
2023-02-11T22:03:59.544Z,74.95
2023-02-11T22:06:31.040Z,74.78
2023-02-11T22:09:00.300Z,74.62
2023-02-11T22:11:30.112Z,74.21
2023-02-11T22:13:58.663Z,73.87
2023-02-11T22:16:26.159Z,73.64
2023-02-11T22:18:53.595Z,73.46
2023-02-11T22:21:21.621Z,73.31
2023-02-11T22:23:49.615Z,73.16
2023-02-11T22:26:21.691Z,72.94
2023-02-11T22:28:49.544Z,73.09
2023-02-11T22:31:18.754Z,73.38
2023-02-11T22:33:46.188Z,73.65
2023-02-11T22:36:16.164Z,73.60
2023-02-11T22:38:43.791Z,73.19
2023-02-11T22:41:11.622Z,72.72
2023-02-11T22:43:39.614Z,72.49
2023-02-11T22:46:09.494Z,72.00
2023-02-11T22:48:39.537Z,71.46
2023-02-11T22:51:11.226Z,71.58
2023-02-11T22:53:38.631Z,71.71
2023-02-11T22:56:14.713Z,71.73
2023-02-11T22:58:42.344Z,71.89
2023-02-11T23:01:09.750Z,71.96
2023-02-11T23:03:38.591Z,72.10
2023-02-11T23:06:06.340Z,72.05
2023-02-11T23:08:33.503Z,72.07
2023-02-11T23:11:28.058Z,72.20
2023-02-11T23:13:58.606Z,72.33
2023-02-11T23:16:27.801Z,72.46
2023-02-11T23:18:54.802Z,72.25
2023-02-11T23:21:25.154Z,72.35
2023-02-11T23:23:57.015Z,72.17
2023-02-11T23:26:23.979Z,71.80
2023-02-11T23:28:51.251Z,71.67
2023-02-11T23:31:20.544Z,71.84
2023-02-11T23:33:48.205Z,71.89
2023-02-11T23:44:03.578Z,72.27
2023-02-11T23:46:32.519Z,72.39
2023-02-11T23:49:01.108Z,72.37
2023-02-11T23:51:29.901Z,72.24
2023-02-11T23:53:58.691Z,72.29
2023-02-11T23:56:27.803Z,72.73
2023-02-11T23:58:57.391Z,72.99
